sensor_id;sensor_type;location;lat;lon;timestamp;pressure;altitude;pressure_sealevel;temperature;humidity
31331;BME280;34067;39.548;-76.088;2023-05-02T00:00:00;99530.05;;;15.39;39.16
31331;BME280;34067;39.548;-76.088;2023-05-02T00:02:29;99531.13;;;15.57;39.21
31331;BME280;34067;39.548;-76.088;2023-05-02T00:04:57;99534.19;;;15.90;39.30
31331;BME280;34067;39.548;-76.088;2023-05-02T00:07:25;99536.82;;;15.54;39.24
31331;BME280;34067;39.548;-76.088;2023-05-02T00:09:53;99534.37;;;14.97;39.48
31331;BME280;34067;39.548;-76.088;2023-05-02T00:12:21;99528.94;;;16.11;39.17
31331;BME280;34067;39.548;-76.088;2023-05-02T00:14:49;99526.37;;;15.69;39.42
31331;BME280;34067;39.548;-76.088;2023-05-02T00:17:18;99529.30;;;15.26;39.80
31331;BME280;34067;39.548;-76.088;2023-05-02T00:19:46;99532.49;;;15.22;39.43
31331;BME280;34067;39.548;-76.088;2023-05-02T00:22:14;99537.91;;;15.06;39.66
31331;BME280;34067;39.548;-76.088;2023-05-02T00:24:42;99533.64;;;15.58;38.97
31331;BME280;34067;39.548;-76.088;2023-05-02T00:27:10;99537.68;;;15.29;39.14
31331;BME280;34067;39.548;-76.088;2023-05-02T00:29:38;99538.14;;;15.21;39.19
31331;BME280;34067;39.548;-76.088;2023-05-02T00:32:06;99536.96;;;15.13;39.15
31331;BME280;34067;39.548;-76.088;2023-05-02T00:34:35;99543.95;;;14.96;39.39
31331;BME280;34067;39.548;-76.088;2023-05-02T00:37:03;99547.24;;;14.88;39.96
31331;BME280;34067;39.548;-76.088;2023-05-02T00:39:31;99544.73;;;14.25;40.35
31331;BME280;34067;39.548;-76.088;2023-05-02T00:42:00;99544.44;;;14.72;39.94
31331;BME280;34067;39.548;-76.088;2023-05-02T00:44:28;99545.03;;;14.99;39.83
31331;BME280;34067;39.548;-76.088;2023-05-02T00:46:56;99547.40;;;14.98;40.24
31331;BME280;34067;39.548;-76.088;2023-05-02T00:49:25;99546.42;;;14.35;40.65
31331;BME280;34067;39.548;-76.088;2023-05-02T00:51:54;99547.45;;;14.51;40.96
31331;BME280;34067;39.548;-76.088;2023-05-02T00:54:22;99546.59;;;14.95;41.17
31331;BME280;34067;39.548;-76.088;2023-05-02T00:56:50;99545.33;;;14.99;41.09
31331;BME280;34067;39.548;-76.088;2023-05-02T00:59:19;99547.72;;;14.44;41.55
31331;BME280;34067;39.548;-76.088;2023-05-02T01:01:56;99549.06;;;14.49;41.81
31331;BME280;34067;39.548;-76.088;2023-05-02T01:04:34;99546.65;;;14.76;41.49
31331;BME280;34067;39.548;-76.088;2023-05-02T01:07:19;99546.91;;;14.56;41.66
31331;BME280;34067;39.548;-76.088;2023-05-02T01:10:06;99547.37;;;14.76;41.72
31331;BME280;34067;39.548;-76.088;2023-05-02T01:12:42;99547.64;;;14.14;41.55
31331;BME280;34067;39.548;-76.088;2023-05-02T01:15:18;99553.67;;;13.80;41.56
31331;BME280;34067;39.548;-76.088;2023-05-02T01:17:50;99558.69;;;14.40;41.07
31331;BME280;34067;39.548;-76.088;2023-05-02T01:20:22;99566.04;;;14.46;40.68
31331;BME280;34067;39.548;-76.088;2023-05-02T01:22:55;99567.49;;;13.68;40.65
31331;BME280;34067;39.548;-76.088;2023-05-02T01:25:30;99570.95;;;14.01;40.39
31331;BME280;34067;39.548;-76.088;2023-05-02T01:28:09;99578.70;;;13.89;40.25
31331;BME280;34067;39.548;-76.088;2023-05-02T01:30:42;99585.97;;;14.38;40.03
31331;BME280;34067;39.548;-76.088;2023-05-02T01:33:14;99596.65;;;15.32;39.44
31331;BME280;34067;39.548;-76.088;2023-05-02T01:35:43;99676.12;;;12.70;42.97
31331;BME280;34067;39.548;-76.088;2023-05-02T01:38:14;99677.72;;;10.68;47.60
31331;BME280;34067;39.548;-76.088;2023-05-02T01:40:45;99688.06;;;8.84;54.98
31331;BME280;34067;39.548;-76.088;2023-05-02T01:43:15;99688.79;;;8.87;61.99
31331;BME280;34067;39.548;-76.088;2023-05-02T01:45:44;99672.75;;;8.97;65.29
31331;BME280;34067;39.548;-76.088;2023-05-02T01:48:17;99662.07;;;8.52;68.03
31331;BME280;34067;39.548;-76.088;2023-05-02T01:50:47;99654.74;;;8.25;69.78
31331;BME280;34067;39.548;-76.088;2023-05-02T01:53:16;99645.78;;;8.54;69.53
31331;BME280;34067;39.548;-76.088;2023-05-02T01:55:45;99636.09;;;10.03;71.00
31331;BME280;34067;39.548;-76.088;2023-05-02T01:58:17;99630.25;;;9.28;68.55
31331;BME280;34067;39.548;-76.088;2023-05-02T02:00:47;99627.56;;;9.31;69.35
31331;BME280;34067;39.548;-76.088;2023-05-02T02:03:16;99629.41;;;10.46;66.15
31331;BME280;34067;39.548;-76.088;2023-05-02T02:05:46;99641.53;;;9.48;69.16
31331;BME280;34067;39.548;-76.088;2023-05-02T02:08:15;99637.43;;;9.12;69.85
31331;BME280;34067;39.548;-76.088;2023-05-02T02:10:48;99642.55;;;8.92;71.44
31331;BME280;34067;39.548;-76.088;2023-05-02T02:13:21;99642.27;;;8.70;70.97
31331;BME280;34067;39.548;-76.088;2023-05-02T02:15:56;99648.92;;;8.74;72.02
31331;BME280;34067;39.548;-76.088;2023-05-02T02:18:27;99652.94;;;8.75;73.35
31331;BME280;34067;39.548;-76.088;2023-05-02T02:20:58;99650.53;;;9.06;73.17
31331;BME280;34067;39.548;-76.088;2023-05-02T02:23:28;99650.89;;;9.06;73.13
31331;BME280;34067;39.548;-76.088;2023-05-02T02:25:57;99649.54;;;10.31;70.15
31331;BME280;34067;39.548;-76.088;2023-05-02T02:28:25;99652.70;;;7.96;73.56
31331;BME280;34067;39.548;-76.088;2023-05-02T02:30:53;99645.85;;;9.18;71.85
31331;BME280;34067;39.548;-76.088;2023-05-02T02:33:22;99646.00;;;8.88;71.30
31331;BME280;34067;39.548;-76.088;2023-05-02T02:35:57;99645.31;;;8.61;73.22
31331;BME280;34067;39.548;-76.088;2023-05-02T02:38:33;99636.35;;;9.21;70.88
31331;BME280;34067;39.548;-76.088;2023-05-02T02:41:12;99630.30;;;9.48;69.86
31331;BME280;34067;39.548;-76.088;2023-05-02T02:43:59;99632.93;;;10.27;68.81
31331;BME280;34067;39.548;-76.088;2023-05-02T02:46:41;99630.35;;;9.04;69.25
31331;BME280;34067;39.548;-76.088;2023-05-02T02:49:23;99631.71;;;9.30;70.69
31331;BME280;34067;39.548;-76.088;2023-05-02T02:52:01;99639.10;;;9.72;71.28
31331;BME280;34067;39.548;-76.088;2023-05-02T02:54:36;99641.73;;;9.07;71.85
31331;BME280;34067;39.548;-76.088;2023-05-02T02:57:13;99633.97;;;9.16;71.48
31331;BME280;34067;39.548;-76.088;2023-05-02T02:59:50;99628.23;;;8.85;73.03
31331;BME280;34067;39.548;-76.088;2023-05-02T03:02:19;99635.35;;;9.20;72.47
31331;BME280;34067;39.548;-76.088;2023-05-02T03:04:51;99634.50;;;9.29;73.76
31331;BME280;34067;39.548;-76.088;2023-05-02T03:07:20;99640.22;;;8.81;76.22
31331;BME280;34067;39.548;-76.088;2023-05-02T03:09:48;99635.96;;;8.30;80.60
31331;BME280;34067;39.548;-76.088;2023-05-02T03:12:16;99628.76;;;8.95;77.81
31331;BME280;34067;39.548;-76.088;2023-05-02T03:14:44;99613.53;;;9.49;75.81
31331;BME280;34067;39.548;-76.088;2023-05-02T03:17:13;99612.67;;;10.23;72.70
31331;BME280;34067;39.548;-76.088;2023-05-02T03:19:41;99607.81;;;9.46;74.15
31331;BME280;34067;39.548;-76.088;2023-05-02T03:22:09;99603.96;;;8.98;75.70
31331;BME280;34067;39.548;-76.088;2023-05-02T03:24:36;99597.86;;;9.44;74.67
31331;BME280;34067;39.548;-76.088;2023-05-02T03:27:04;99597.46;;;10.10;72.51
31331;BME280;34067;39.548;-76.088;2023-05-02T03:29:33;99587.93;;;10.13;68.97
31331;BME280;34067;39.548;-76.088;2023-05-02T03:32:02;99579.60;;;11.50;67.25
31331;BME280;34067;39.548;-76.088;2023-05-02T03:34:30;99574.72;;;11.19;66.35
31331;BME280;34067;39.548;-76.088;2023-05-02T03:36:58;99573.22;;;11.54;65.24
31331;BME280;34067;39.548;-76.088;2023-05-02T03:39:26;99575.39;;;11.88;63.82
31331;BME280;34067;39.548;-76.088;2023-05-02T03:41:54;99577.46;;;11.43;64.04
31331;BME280;34067;39.548;-76.088;2023-05-02T03:44:22;99583.69;;;11.59;63.33
31331;BME280;34067;39.548;-76.088;2023-05-02T03:46:51;99584.43;;;11.81;62.88
31331;BME280;34067;39.548;-76.088;2023-05-02T03:49:19;99586.51;;;11.84;63.07
31331;BME280;34067;39.548;-76.088;2023-05-02T03:51:47;99584.80;;;11.80;62.97
31331;BME280;34067;39.548;-76.088;2023-05-02T03:54:15;99585.93;;;11.67;63.34
31331;BME280;34067;39.548;-76.088;2023-05-02T03:56:43;99588.57;;;11.77;63.08
31331;BME280;34067;39.548;-76.088;2023-05-02T03:59:12;99589.79;;;11.77;63.36
31331;BME280;34067;39.548;-76.088;2023-05-02T04:01:40;99588.83;;;11.81;63.51
31331;BME280;34067;39.548;-76.088;2023-05-02T04:04:07;99591.60;;;11.52;63.95
31331;BME280;34067;39.548;-76.088;2023-05-02T04:06:35;99591.93;;;11.30;64.44
31331;BME280;34067;39.548;-76.088;2023-05-02T04:09:03;99587.59;;;11.42;63.97
31331;BME280;34067;39.548;-76.088;2023-05-02T04:11:31;99586.44;;;11.50;63.96
31331;BME280;34067;39.548;-76.088;2023-05-02T04:14:00;99588.51;;;11.31;65.00
31331;BME280;34067;39.548;-76.088;2023-05-02T04:16:28;99578.56;;;10.39;66.88
31331;BME280;34067;39.548;-76.088;2023-05-02T04:18:56;99582.86;;;11.43;67.01
31331;BME280;34067;39.548;-76.088;2023-05-02T04:21:24;99580.26;;;11.24;68.73
31331;BME280;34067;39.548;-76.088;2023-05-02T04:23:52;99580.28;;;11.80;68.01
31331;BME280;34067;39.548;-76.088;2023-05-02T04:26:20;99582.03;;;10.76;67.66
31331;BME280;34067;39.548;-76.088;2023-05-02T04:28:49;99584.31;;;11.45;67.92
31331;BME280;34067;39.548;-76.088;2023-05-02T04:31:17;99583.55;;;10.99;68.63
31331;BME280;34067;39.548;-76.088;2023-05-02T04:33:45;99585.55;;;10.85;69.19
31331;BME280;34067;39.548;-76.088;2023-05-02T04:36:13;99581.67;;;10.76;70.06
31331;BME280;34067;39.548;-76.088;2023-05-02T04:38:42;99578.00;;;11.01;69.12
31331;BME280;34067;39.548;-76.088;2023-05-02T04:41:10;99580.42;;;10.45;70.55
31331;BME280;34067;39.548;-76.088;2023-05-02T04:43:38;99580.12;;;10.83;70.27
31331;BME280;34067;39.548;-76.088;2023-05-02T04:46:07;99578.73;;;11.06;69.36
31331;BME280;34067;39.548;-76.088;2023-05-02T04:48:35;99582.07;;;11.35;70.23
31331;BME280;34067;39.548;-76.088;2023-05-02T04:51:03;99579.50;;;11.42;69.05
31331;BME280;34067;39.548;-76.088;2023-05-02T04:53:31;99570.25;;;11.09;68.22
31331;BME280;34067;39.548;-76.088;2023-05-02T04:56:00;99564.11;;;10.45;69.51
31331;BME280;34067;39.548;-76.088;2023-05-02T04:58:28;99562.81;;;10.70;69.09
31331;BME280;34067;39.548;-76.088;2023-05-02T05:03:10;99561.97;;;10.89;69.40
31331;BME280;34067;39.548;-76.088;2023-05-02T05:05:38;99557.35;;;11.21;68.91
31331;BME280;34067;39.548;-76.088;2023-05-02T05:08:06;99558.33;;;10.86;69.35
31331;BME280;34067;39.548;-76.088;2023-05-02T05:10:34;99556.27;;;10.43;69.02
31331;BME280;34067;39.548;-76.088;2023-05-02T05:13:02;99551.49;;;10.50;70.09
31331;BME280;34067;39.548;-76.088;2023-05-02T05:15:30;99555.71;;;11.18;69.44
31331;BME280;34067;39.548;-76.088;2023-05-02T05:17:59;99550.34;;;10.57;69.57
31331;BME280;34067;39.548;-76.088;2023-05-02T05:20:26;99537.40;;;9.96;70.57
31331;BME280;34067;39.548;-76.088;2023-05-02T05:22:54;99536.00;;;10.75;69.50
31331;BME280;34067;39.548;-76.088;2023-05-02T05:25:22;99536.49;;;10.43;69.10
31331;BME280;34067;39.548;-76.088;2023-05-02T05:27:51;99528.72;;;10.45;68.53
31331;BME280;34067;39.548;-76.088;2023-05-02T05:30:20;99519.16;;;10.20;67.98
31331;BME280;34067;39.548;-76.088;2023-05-02T05:32:48;99509.19;;;10.60;65.71
31331;BME280;34067;39.548;-76.088;2023-05-02T05:35:17;99509.90;;;10.60;66.56
31331;BME280;34067;39.548;-76.088;2023-05-02T05:37:44;99511.10;;;10.53;67.22
31331;BME280;34067;39.548;-76.088;2023-05-02T05:40:13;99505.93;;;10.28;67.67
31331;BME280;34067;39.548;-76.088;2023-05-02T05:42:41;99503.82;;;10.24;67.87
31331;BME280;34067;39.548;-76.088;2023-05-02T05:45:09;99496.57;;;9.78;68.43
31331;BME280;34067;39.548;-76.088;2023-05-02T05:47:37;99487.81;;;10.09;67.77
31331;BME280;34067;39.548;-76.088;2023-05-02T05:50:07;99483.34;;;10.92;66.79
31331;BME280;34067;39.548;-76.088;2023-05-02T05:52:35;99479.64;;;10.73;67.50
31331;BME280;34067;39.548;-76.088;2023-05-02T05:55:03;99475.30;;;9.89;67.97
31331;BME280;34067;39.548;-76.088;2023-05-02T05:57:32;99468.10;;;10.19;67.39
31331;BME280;34067;39.548;-76.088;2023-05-02T05:59:59;99466.16;;;10.34;67.11
31331;BME280;34067;39.548;-76.088;2023-05-02T06:02:27;99465.90;;;9.80;67.92
31331;BME280;34067;39.548;-76.088;2023-05-02T06:04:55;99460.69;;;10.95;65.18
31331;BME280;34067;39.548;-76.088;2023-05-02T06:07:23;99465.39;;;10.83;65.74
31331;BME280;34067;39.548;-76.088;2023-05-02T06:09:51;99460.94;;;11.18;65.71
31331;BME280;34067;39.548;-76.088;2023-05-02T06:12:20;99454.96;;;10.95;66.07
31331;BME280;34067;39.548;-76.088;2023-05-02T06:14:48;99452.93;;;11.21;66.73
31331;BME280;34067;39.548;-76.088;2023-05-02T06:17:16;99447.62;;;10.37;65.53
31331;BME280;34067;39.548;-76.088;2023-05-02T06:19:44;99443.41;;;11.07;65.39
31331;BME280;34067;39.548;-76.088;2023-05-02T06:22:11;99435.50;;;10.57;64.98
31331;BME280;34067;39.548;-76.088;2023-05-02T06:24:39;99430.16;;;10.70;65.76
31331;BME280;34067;39.548;-76.088;2023-05-02T06:27:07;99423.41;;;10.94;64.63
31331;BME280;34067;39.548;-76.088;2023-05-02T06:29:34;99416.79;;;10.81;64.63
31331;BME280;34067;39.548;-76.088;2023-05-02T06:32:03;99415.79;;;10.89;64.98
31331;BME280;34067;39.548;-76.088;2023-05-02T06:34:31;99415.36;;;10.84;64.07
31331;BME280;34067;39.548;-76.088;2023-05-02T06:36:59;99411.71;;;11.16;63.51
31331;BME280;34067;39.548;-76.088;2023-05-02T06:39:27;99410.58;;;10.67;65.22
31331;BME280;34067;39.548;-76.088;2023-05-02T06:41:56;99408.33;;;10.92;65.36
31331;BME280;34067;39.548;-76.088;2023-05-02T06:44:24;99402.09;;;11.29;63.29
31331;BME280;34067;39.548;-76.088;2023-05-02T06:46:52;99401.39;;;11.28;63.11
31331;BME280;34067;39.548;-76.088;2023-05-02T06:49:21;99401.08;;;10.84;64.21
31331;BME280;34067;39.548;-76.088;2023-05-02T06:51:49;99402.48;;;10.73;64.76
31331;BME280;34067;39.548;-76.088;2023-05-02T06:54:16;99400.72;;;10.53;64.02
31331;BME280;34067;39.548;-76.088;2023-05-02T06:56:44;99408.26;;;10.90;64.47
31331;BME280;34067;39.548;-76.088;2023-05-02T06:59:13;99402.91;;;10.21;67.30
31331;BME280;34067;39.548;-76.088;2023-05-02T07:01:42;99412.48;;;10.98;66.66
31331;BME280;34067;39.548;-76.088;2023-05-02T07:04:10;99419.57;;;9.64;66.66
31331;BME280;34067;39.548;-76.088;2023-05-02T07:06:39;99413.04;;;9.68;67.01
31331;BME280;34067;39.548;-76.088;2023-05-02T07:09:07;99417.75;;;9.56;66.65
31331;BME280;34067;39.548;-76.088;2023-05-02T07:11:35;99420.76;;;8.07;69.35
31331;BME280;34067;39.548;-76.088;2023-05-02T07:14:03;99423.11;;;8.12;69.12
31331;BME280;34067;39.548;-76.088;2023-05-02T07:16:32;99420.99;;;8.70;68.63
31331;BME280;34067;39.548;-76.088;2023-05-02T07:19:00;99427.86;;;8.78;68.84
31331;BME280;34067;39.548;-76.088;2023-05-02T07:21:28;99437.96;;;7.89;71.88
31331;BME280;34067;39.548;-76.088;2023-05-02T07:23:56;99440.61;;;7.29;73.45
31331;BME280;34067;39.548;-76.088;2023-05-02T07:26:24;99438.84;;;7.19;72.49
31331;BME280;34067;39.548;-76.088;2023-05-02T07:28:52;99446.81;;;6.37;72.49
31331;BME280;34067;39.548;-76.088;2023-05-02T07:31:20;99444.92;;;7.85;69.53
31331;BME280;34067;39.548;-76.088;2023-05-02T07:33:47;99446.14;;;6.82;70.95
31331;BME280;34067;39.548;-76.088;2023-05-02T07:36:15;99453.82;;;6.13;71.50
31331;BME280;34067;39.548;-76.088;2023-05-02T07:38:44;99446.69;;;6.89;72.10
31331;BME280;34067;39.548;-76.088;2023-05-02T07:41:12;99443.04;;;7.17;68.62
31331;BME280;34067;39.548;-76.088;2023-05-02T07:43:40;99438.93;;;6.63;70.52
31331;BME280;34067;39.548;-76.088;2023-05-02T07:46:08;99448.07;;;7.61;68.99
31331;BME280;34067;39.548;-76.088;2023-05-02T07:48:36;99450.92;;;6.35;70.86
31331;BME280;34067;39.548;-76.088;2023-05-02T07:51:06;99453.43;;;6.31;72.66
31331;BME280;34067;39.548;-76.088;2023-05-02T07:53:34;99451.13;;;7.30;70.62
31331;BME280;34067;39.548;-76.088;2023-05-02T07:56:03;99454.27;;;6.71;69.90
31331;BME280;34067;39.548;-76.088;2023-05-02T07:58:31;99448.27;;;8.23;68.23
31331;BME280;34067;39.548;-76.088;2023-05-02T08:00:59;99450.41;;;7.52;68.81
31331;BME280;34067;39.548;-76.088;2023-05-02T08:03:26;99447.90;;;7.91;68.17
31331;BME280;34067;39.548;-76.088;2023-05-02T08:05:54;99440.76;;;8.51;66.38
31331;BME280;34067;39.548;-76.088;2023-05-02T08:08:22;99444.16;;;8.21;66.03
31331;BME280;34067;39.548;-76.088;2023-05-02T08:10:51;99450.96;;;7.16;69.82
31331;BME280;34067;39.548;-76.088;2023-05-02T08:13:19;99447.09;;;8.10;67.54
31331;BME280;34067;39.548;-76.088;2023-05-02T08:15:47;99450.86;;;7.88;68.98
31331;BME280;34067;39.548;-76.088;2023-05-02T08:18:15;99454.27;;;7.62;68.99
31331;BME280;34067;39.548;-76.088;2023-05-02T08:20:44;99457.12;;;7.56;69.80
31331;BME280;34067;39.548;-76.088;2023-05-02T08:23:12;99451.15;;;7.83;69.50
31331;BME280;34067;39.548;-76.088;2023-05-02T08:25:40;99453.46;;;7.73;69.59
31331;BME280;34067;39.548;-76.088;2023-05-02T08:28:08;99449.83;;;8.22;68.01
31331;BME280;34067;39.548;-76.088;2023-05-02T08:30:36;99449.31;;;8.46;68.39
31331;BME280;34067;39.548;-76.088;2023-05-02T08:33:04;99449.34;;;8.12;69.90
31331;BME280;34067;39.548;-76.088;2023-05-02T08:35:32;99450.21;;;7.75;68.98
31331;BME280;34067;39.548;-76.088;2023-05-02T08:38:01;99449.58;;;8.20;68.84
31331;BME280;34067;39.548;-76.088;2023-05-02T08:40:34;99453.90;;;8.65;67.75
31331;BME280;34067;39.548;-76.088;2023-05-02T08:43:03;99456.32;;;7.87;69.21
31331;BME280;34067;39.548;-76.088;2023-05-02T08:45:34;99458.96;;;7.59;68.55
31331;BME280;34067;39.548;-76.088;2023-05-02T08:48:05;99463.62;;;7.82;69.63
31331;BME280;34067;39.548;-76.088;2023-05-02T08:50:36;99463.52;;;8.08;69.29
31331;BME280;34067;39.548;-76.088;2023-05-02T08:53:05;99463.77;;;6.05;77.14
31331;BME280;34067;39.548;-76.088;2023-05-02T08:55:35;99459.44;;;8.02;71.30
31331;BME280;34067;39.548;-76.088;2023-05-02T08:58:03;99463.19;;;7.54;71.53
31331;BME280;34067;39.548;-76.088;2023-05-02T09:00:32;99464.25;;;7.62;69.94
31331;BME280;34067;39.548;-76.088;2023-05-02T09:03:07;99468.66;;;7.74;68.91
31331;BME280;34067;39.548;-76.088;2023-05-02T09:05:40;99465.11;;;8.36;66.29
31331;BME280;34067;39.548;-76.088;2023-05-02T09:08:08;99469.09;;;8.17;66.29
31331;BME280;34067;39.548;-76.088;2023-05-02T09:10:36;99463.41;;;8.48;65.44
31331;BME280;34067;39.548;-76.088;2023-05-02T09:13:39;99464.93;;;9.44;63.61
31331;BME280;34067;39.548;-76.088;2023-05-02T09:16:08;99471.38;;;9.44;60.80
31331;BME280;34067;39.548;-76.088;2023-05-02T09:18:37;99472.86;;;9.61;60.83
31331;BME280;34067;39.548;-76.088;2023-05-02T09:21:08;99481.51;;;9.44;60.36
31331;BME280;34067;39.548;-76.088;2023-05-02T09:23:38;99487.12;;;10.11;59.48
31331;BME280;34067;39.548;-76.088;2023-05-02T09:26:15;99488.70;;;10.48;58.90
31331;BME280;34067;39.548;-76.088;2023-05-02T09:28:44;99498.08;;;9.92;59.40
31331;BME280;34067;39.548;-76.088;2023-05-02T09:31:13;99501.35;;;10.07;59.78
31331;BME280;34067;39.548;-76.088;2023-05-02T09:33:41;99509.10;;;10.38;59.75
31331;BME280;34067;39.548;-76.088;2023-05-02T09:36:11;99509.06;;;9.81;60.52
31331;BME280;34067;39.548;-76.088;2023-05-02T09:38:39;99507.57;;;10.37;60.58
31331;BME280;34067;39.548;-76.088;2023-05-02T09:41:08;99512.28;;;10.42;60.69
31331;BME280;34067;39.548;-76.088;2023-05-02T09:43:36;99517.08;;;10.07;61.21
31331;BME280;34067;39.548;-76.088;2023-05-02T09:46:05;99520.72;;;9.44;62.54
31331;BME280;34067;39.548;-76.088;2023-05-02T09:48:51;99518.40;;;8.86;64.46
31331;BME280;34067;39.548;-76.088;2023-05-02T09:51:20;99526.58;;;9.53;62.89
31331;BME280;34067;39.548;-76.088;2023-05-02T09:53:49;99530.10;;;9.79;62.46
31331;BME280;34067;39.548;-76.088;2023-05-02T09:56:17;99538.81;;;8.96;63.42
31331;BME280;34067;39.548;-76.088;2023-05-02T09:58:45;99541.85;;;9.55;63.59
31331;BME280;34067;39.548;-76.088;2023-05-02T10:01:15;99546.91;;;9.60;63.70
31331;BME280;34067;39.548;-76.088;2023-05-02T10:03:46;99552.22;;;10.37;63.13
31331;BME280;34067;39.548;-76.088;2023-05-02T10:06:15;99549.27;;;9.54;62.93
31331;BME280;34067;39.548;-76.088;2023-05-02T10:08:43;99554.86;;;9.55;62.51
31331;BME280;34067;39.548;-76.088;2023-05-02T10:11:12;99555.13;;;9.76;62.06
31331;BME280;34067;39.548;-76.088;2023-05-02T10:13:40;99561.14;;;7.61;64.97
31331;BME280;34067;39.548;-76.088;2023-05-02T10:16:11;99563.54;;;9.04;64.22
31331;BME280;34067;39.548;-76.088;2023-05-02T10:18:44;99564.11;;;8.58;64.37
31331;BME280;34067;39.548;-76.088;2023-05-02T10:21:16;99568.53;;;9.14;62.09
31331;BME280;34067;39.548;-76.088;2023-05-02T10:23:47;99575.36;;;7.97;62.34
31331;BME280;34067;39.548;-76.088;2023-05-02T10:26:16;99576.57;;;8.68;60.93
31331;BME280;34067;39.548;-76.088;2023-05-02T10:28:43;99583.08;;;7.41;62.08
31331;BME280;34067;39.548;-76.088;2023-05-02T10:31:13;99585.64;;;5.76;64.81
31331;BME280;34067;39.548;-76.088;2023-05-02T10:33:41;99593.56;;;6.73;62.73
31331;BME280;34067;39.548;-76.088;2023-05-02T10:36:10;99606.32;;;7.29;61.39
31331;BME280;34067;39.548;-76.088;2023-05-02T10:38:38;99621.64;;;6.52;63.52
31331;BME280;34067;39.548;-76.088;2023-05-02T10:41:11;99623.00;;;5.93;62.16
31331;BME280;34067;39.548;-76.088;2023-05-02T10:43:44;99649.14;;;5.85;62.20
31331;BME280;34067;39.548;-76.088;2023-05-02T10:46:45;99629.28;;;5.98;61.97
31331;BME280;34067;39.548;-76.088;2023-05-02T10:49:13;99627.69;;;6.26;60.86
31331;BME280;34067;39.548;-76.088;2023-05-02T10:51:42;99630.74;;;5.82;61.94
31331;BME280;34067;39.548;-76.088;2023-05-02T10:54:20;99631.54;;;5.07;63.69
31331;BME280;34067;39.548;-76.088;2023-05-02T10:57:02;99629.62;;;5.65;62.45
31331;BME280;34067;39.548;-76.088;2023-05-02T10:59:32;99630.68;;;5.69;61.87
31331;BME280;34067;39.548;-76.088;2023-05-02T11:02:01;99629.36;;;6.22;61.53
31331;BME280;34067;39.548;-76.088;2023-05-02T11:05:03;99631.67;;;6.61;60.66
31331;BME280;34067;39.548;-76.088;2023-05-02T11:07:32;99630.24;;;6.36;58.67
31331;BME280;34067;39.548;-76.088;2023-05-02T11:10:26;99627.24;;;8.11;57.46
31331;BME280;34067;39.548;-76.088;2023-05-02T11:12:56;99640.55;;;5.98;58.97
31331;BME280;34067;39.548;-76.088;2023-05-02T11:15:56;99628.48;;;5.84;59.55
31331;BME280;34067;39.548;-76.088;2023-05-02T11:18:24;99627.59;;;6.59;58.11
31331;BME280;34067;39.548;-76.088;2023-05-02T11:21:25;99627.11;;;6.39;58.33
31331;BME280;34067;39.548;-76.088;2023-05-02T11:24:37;99623.94;;;6.67;57.30
31331;BME280;34067;39.548;-76.088;2023-05-02T11:27:37;99624.40;;;6.06;59.36
31331;BME280;34067;39.548;-76.088;2023-05-02T11:30:06;99619.36;;;7.84;55.69
31331;BME280;34067;39.548;-76.088;2023-05-02T11:33:39;99618.16;;;8.56;54.53
31331;BME280;34067;39.548;-76.088;2023-05-02T11:36:07;99614.79;;;9.46;52.37
31331;BME280;34067;39.548;-76.088;2023-05-02T11:38:36;99616.30;;;8.66;53.20
31331;BME280;34067;39.548;-76.088;2023-05-02T11:41:04;99612.62;;;9.72;51.37
31331;BME280;34067;39.548;-76.088;2023-05-02T11:43:32;99616.21;;;10.15;50.34
31331;BME280;34067;39.548;-76.088;2023-05-02T11:46:01;99618.05;;;10.42;48.94
31331;BME280;34067;39.548;-76.088;2023-05-02T11:48:30;99617.72;;;9.48;50.09
31331;BME280;34067;39.548;-76.088;2023-05-02T11:50:59;99620.49;;;10.24;49.67
31331;BME280;34067;39.548;-76.088;2023-05-02T11:53:27;99617.38;;;10.12;49.55
31331;BME280;34067;39.548;-76.088;2023-05-02T11:55:57;99620.00;;;10.58;48.62
31331;BME280;34067;39.548;-76.088;2023-05-02T11:58:27;99619.01;;;10.17;49.44
31331;BME280;34067;39.548;-76.088;2023-05-02T12:00:55;99618.76;;;9.23;50.54
31331;BME280;34067;39.548;-76.088;2023-05-02T12:03:28;99619.80;;;9.27;50.70
31331;BME280;34067;39.548;-76.088;2023-05-02T12:06:00;99627.12;;;10.16;49.92
31331;BME280;34067;39.548;-76.088;2023-05-02T12:08:35;99620.20;;;8.99;51.26
31331;BME280;34067;39.548;-76.088;2023-05-02T12:11:03;99627.04;;;8.24;52.22
31331;BME280;34067;39.548;-76.088;2023-05-02T12:13:31;99624.04;;;10.11;50.15
31331;BME280;34067;39.548;-76.088;2023-05-02T12:15:59;99623.89;;;9.40;50.92
31331;BME280;34067;39.548;-76.088;2023-05-02T12:18:27;99624.98;;;9.82;49.59
31331;BME280;34067;39.548;-76.088;2023-05-02T12:20:55;99622.33;;;10.21;48.17
31331;BME280;34067;39.548;-76.088;2023-05-02T12:23:24;99624.45;;;10.53;48.90
31331;BME280;34067;39.548;-76.088;2023-05-02T12:25:53;99626.26;;;9.96;49.00
31331;BME280;34067;39.548;-76.088;2023-05-02T12:28:21;99624.02;;;10.56;49.07
31331;BME280;34067;39.548;-76.088;2023-05-02T12:30:50;99624.40;;;9.94;48.12
31331;BME280;34067;39.548;-76.088;2023-05-02T12:33:18;99621.44;;;10.82;47.60
31331;BME280;34067;39.548;-76.088;2023-05-02T12:35:46;99622.16;;;9.69;49.83
31331;BME280;34067;39.548;-76.088;2023-05-02T12:38:15;99623.18;;;9.67;50.49
31331;BME280;34067;39.548;-76.088;2023-05-02T12:40:48;99621.46;;;10.16;49.35
31331;BME280;34067;39.548;-76.088;2023-05-02T12:43:17;99619.10;;;9.84;49.80
31331;BME280;34067;39.548;-76.088;2023-05-02T12:45:45;99614.36;;;10.99;48.36
31331;BME280;34067;39.548;-76.088;2023-05-02T12:48:22;99612.96;;;11.26;47.90
31331;BME280;34067;39.548;-76.088;2023-05-02T12:50:51;99614.89;;;9.98;47.63
31331;BME280;34067;39.548;-76.088;2023-05-02T12:53:38;99620.10;;;10.44;48.30
31331;BME280;34067;39.548;-76.088;2023-05-02T12:56:06;99616.07;;;9.74;49.81
31331;BME280;34067;39.548;-76.088;2023-05-02T12:58:43;99617.18;;;10.97;48.34
31331;BME280;34067;39.548;-76.088;2023-05-02T13:01:12;99614.58;;;10.96;47.65
31331;BME280;34067;39.548;-76.088;2023-05-02T13:03:40;99619.82;;;11.77;46.87